Aurora, Nebraska
Current Conditions -  °F | °C
As of 11:35 AM on Monday 24 Nov 2014 (Local Time) from KAUH Reporting Station
Clear Clear  
Wind Chill: 21°   Ceiling: Unl
Heat Index: 34°   Visibility: 10mi
Dew Point: 17°   Wind: 25mph
Humidity: 52%   Direction: 330°NNW
Pressure: 29.81"   Gusts: 32mph
Location:  40.87°N, 98°W
Report Text: KAUH 241735Z AUTO 33022G28KT 10SM CLR 01/M08 A2981 RMK AO2 T00091081
Loading
Personal Weather Stations






























Interactive Weather Map New forecast layout! Learn more

10-Day Weather Forecast

Advertisements
Track Severe Weather on mobile